Time;durP1;ratioP1;P1;durP2;ratioP2;P2;SDS_P1;SDS_P2;PMS_P1;PMS_P2;Temp;Humidity;BMP_temperature;BMP_pressure;BME280_temperature;BME280_humidity;BME280_pressure;Samples;Min_cycle;Max_cycle;Signal;HPM_P1;HPM_P2
2023/02/22 00:02:59;;;;;;;;;;;;;;;19.94;38.72;95572.69;10433111;28;2336;-53
2023/02/22 00:07:59;;;;;;;;;;;;;;;19.94;38.92;95574.53;10424972;28;3089;-53
2023/02/22 00:13:00;;;;;;;;;;;;;;;19.92;38.79;95561.66;10424621;28;3001;-53
2023/02/22 00:18:00;;;;;;;;;;;;;;;19.92;38.81;95558.22;10417838;28;3033;-52
2023/02/22 00:23:00;;;;;;;;;;;;;;;19.90;38.86;95555.88;10420120;28;2302;-53
2023/02/22 00:28:01;;;;;;;;;;;;;;;19.89;38.58;95553.50;10414101;28;3342;-52
2023/02/22 00:33:02;;;;;;;;;;;;;;;19.87;38.68;95559.03;10420745;28;2298;-53
2023/02/22 00:38:13;;;;;;;;;;;;;;;19.87;38.56;95556.41;10401096;28;2965;-52
2023/02/22 00:43:14;;;;;;;;;;;;;;;19.86;38.58;95556.69;10413568;28;3045;-51
2023/02/22 00:48:15;;;;;;;;;;;;;;;19.86;38.67;95551.44;10411310;28;2384;-50
2023/02/22 00:53:16;;;;;;;;;;;;;;;19.84;38.77;95553.56;10445096;28;2942;-53
2023/02/22 00:58:17;;;;;;;;;;;;;;;19.82;38.58;95539.88;10416518;28;2330;-49
2023/02/22 01:03:19;;;;;;;;;;;;;;;19.82;38.35;95547.78;10419285;28;3099;-53
2023/02/22 01:08:20;;;;;;;;;;;;;;;19.80;38.37;95534.91;10420511;28;3001;-54
2023/02/22 01:13:21;;;;;;;;;;;;;;;19.81;38.23;95533.03;10413434;28;3089;-51
2023/02/22 01:18:22;;;;;;;;;;;;;;;19.78;38.31;95531.78;10417163;28;3025;-54
2023/02/22 01:23:22;;;;;;;;;;;;;;;19.77;38.26;95524.13;10413517;28;2263;-53
2023/02/22 01:28:22;;;;;;;;;;;;;;;19.78;38.34;95520.47;10417217;28;3331;-54
2023/02/22 01:33:23;;;;;;;;;;;;;;;19.76;38.27;95522.56;10416598;28;3106;-53
2023/02/22 01:38:24;;;;;;;;;;;;;;;19.75;38.18;95521.00;10417379;28;2279;-55
2023/02/22 01:43:26;;;;;;;;;;;;;;;19.74;38.11;95519.44;10419106;28;2989;-52
2023/02/22 01:48:27;;;;;;;;;;;;;;;19.74;38.23;95516.81;10420829;28;3025;-53
2023/02/22 01:53:29;;;;;;;;;;;;;;;19.73;38.10;95515.22;10428616;28;2981;-53
2023/02/22 01:58:31;;;;;;;;;;;;;;;19.72;38.15;95524.19;10412076;28;2994;-54
2023/02/22 02:03:33;;;;;;;;;;;;;;;19.71;37.99;95510.25;10435144;28;2981;-53
2023/02/22 02:08:41;;;;;;;;;;;;;;;19.71;38.15;95512.06;10416178;28;2994;-52
2023/02/22 02:13:41;;;;;;;;;;;;;;;19.69;38.14;95501.03;10417624;28;2234;-52
2023/02/22 02:18:42;;;;;;;;;;;;;;;19.69;38.05;95495.78;10407784;28;2310;-53
2023/02/22 02:23:43;;;;;;;;;;;;;;;19.68;37.85;95488.97;10421318;28;2231;-53
2023/02/22 02:28:49;;;;;;;;;;;;;;;19.67;37.87;95480.28;10412161;28;2969;-49
2023/02/22 02:33:50;;;;;;;;;;;;;;;19.66;38.15;95480.56;10410295;28;2338;-49
2023/02/22 02:39:03;;;;;;;;;;;;;;;19.66;38.20;95464.78;10401801;28;2294;-52
2023/02/22 02:44:04;;;;;;;;;;;;;;;19.64;38.48;95461.66;10411738;28;2389;-54
2023/02/22 02:49:06;;;;;;;;;;;;;;;19.64;38.57;95454.53;10429926;28;3042;-51
2023/02/22 02:54:06;;;;;;;;;;;;;;;19.65;38.45;95457.94;10415689;28;3181;-50
2023/02/22 02:59:24;;;;;;;;;;;;;;;19.65;38.42;95452.69;10427368;28;3038;-53
2023/02/22 03:04:44;;;;;;;;;;;;;;;19.64;38.40;95446.63;10402627;28;2343;-54
2023/02/22 03:10:04;;;;;;;;;;;;;;;19.64;38.30;95444.00;10408268;28;2299;-50
2023/02/22 03:15:10;;;;;;;;;;;;;;;19.62;38.18;95434.84;10423651;28;3053;-50
2023/02/22 03:20:25;;;;;;;;;;;;;;;19.60;38.21;95440.38;10434139;28;2262;-49
2023/02/22 03:25:28;;;;;;;;;;;;;;;19.60;38.20;95434.34;10422228;28;2306;-51
2023/02/22 03:30:36;;;;;;;;;;;;;;;19.59;38.11;95438.00;10423217;28;3245;-53
2023/02/22 03:35:37;;;;;;;;;;;;;;;19.58;38.03;95442.47;10405089;28;3098;-50
2023/02/22 03:40:42;;;;;;;;;;;;;;;19.58;38.12;95446.97;10422657;28;2310;-50
2023/02/22 03:45:44;;;;;;;;;;;;;;;19.56;38.20;95454.34;10406617;28;3016;-51
2023/02/22 03:50:44;;;;;;;;;;;;;;;19.55;37.96;95455.41;10393322;28;3002;-53
2023/02/22 03:55:45;;;;;;;;;;;;;;;19.55;38.08;95465.91;10437041;28;3065;-52
2023/02/22 04:00:45;;;;;;;;;;;;;;;19.54;38.05;95461.72;10402926;28;2252;-53
2023/02/22 04:05:46;;;;;;;;;;;;;;;19.52;38.01;95458.56;10418678;28;2407;-51
2023/02/22 04:10:46;;;;;;;;;;;;;;;19.52;38.02;95458.56;10426629;28;3093;-51
2023/02/22 04:15:47;;;;;;;;;;;;;;;19.49;37.97;95455.41;10432456;28;3025;-50
2023/02/22 04:20:48;;;;;;;;;;;;;;;19.49;37.98;95446.78;10423686;28;2247;-52
2023/02/22 04:25:48;;;;;;;;;;;;;;;19.48;37.83;95448.59;10420606;28;2258;-48
2023/02/22 04:30:48;;;;;;;;;;;;;;;19.48;37.81;95443.34;10425329;28;2317;-47
2023/02/22 04:35:50;;;;;;;;;;;;;;;19.47;37.75;95439.13;10438873;28;3202;-48
2023/02/22 04:40:52;;;;;;;;;;;;;;;19.44;37.74;95437.06;10401800;28;2287;-49
2023/02/22 04:45:52;;;;;;;;;;;;;;;19.44;37.70;95426.56;10418073;28;2259;-49
2023/02/22 04:50:53;;;;;;;;;;;;;;;19.44;37.82;95429.19;10417894;28;2978;-52
2023/02/22 04:55:54;;;;;;;;;;;;;;;19.42;37.58;95433.94;10421012;28;3013;-51
2023/02/22 05:00:54;;;;;;;;;;;;;;;19.42;37.69;95436.56;10404586;28;2346;-51
2023/02/22 05:05:54;;;;;;;;;;;;;;;19.42;37.67;95433.94;10413646;28;2310;-48
2023/02/22 05:10:55;;;;;;;;;;;;;;;19.43;37.64;95435.47;10420561;28;2298;-51
2023/02/22 05:15:55;;;;;;;;;;;;;;;19.47;37.67;95423.38;10420535;28;2989;-51
2023/02/22 05:20:58;;;;;;;;;;;;;;;19.52;37.62;95419.91;10413419;28;2341;-52
2023/02/22 05:25:59;;;;;;;;;;;;;;;19.57;37.53;95425.16;10417716;28;3189;-48
2023/02/22 05:31:04;;;;;;;;;;;;;;;19.62;37.45;95411.19;10413636;28;3165;-49
2023/02/22 05:36:04;;;;;;;;;;;;;;;19.69;37.27;95411.63;10416160;28;2287;-52
2023/02/22 05:41:05;;;;;;;;;;;;;;;19.76;37.00;95404.22;10419640;28;3386;-52
2023/02/22 05:46:05;;;;;;;;;;;;;;;19.80;37.19;95400.78;10418043;28;3083;-49
2023/02/22 05:51:06;;;;;;;;;;;;;;;19.87;37.08;95403.06;10416724;28;3018;-51
2023/02/22 05:56:06;;;;;;;;;;;;;;;19.94;36.84;95398.28;10404023;28;3097;-50
2023/02/22 06:01:06;;;;;;;;;;;;;;;20.00;36.59;95397.16;10413910;28;3021;-49
2023/02/22 06:06:07;;;;;;;;;;;;;;;20.04;36.70;95398.97;10400598;28;2986;-48
2023/02/22 06:11:09;;;;;;;;;;;;;;;20.08;36.40;95389.44;10412940;28;2303;-51
2023/02/22 06:16:10;;;;;;;;;;;;;;;20.15;36.47;95397.03;10413906;28;2209;-51
2023/02/22 06:21:11;;;;;;;;;;;;;;;20.17;36.36;95397.53;10419084;28;3001;-51
2023/02/22 06:26:21;;;;;;;;;;;;;;;20.21;36.20;95399.34;10413354;28;2279;-51
2023/02/22 06:31:22;;;;;;;;;;;;;;;20.26;36.26;95401.91;10411676;28;2981;-49
2023/02/22 06:36:22;;;;;;;;;;;;;;;20.30;36.16;95412.66;10414184;28;3073;-53
2023/02/22 06:41:23;;;;;;;;;;;;;;;20.32;36.04;95418.44;10401206;28;2307;-50
2023/02/22 06:46:23;;;;;;;;;;;;;;;20.37;36.06;95422.88;10410842;28;3032;-52
2023/02/22 06:51:24;;;;;;;;;;;;;;;20.37;35.70;95426.28;10413688;28;2994;-51
2023/02/22 06:56:24;;;;;;;;;;;;;;;20.40;35.70;95431.00;10412494;28;2510;-48
2023/02/22 07:01:25;;;;;;;;;;;;;;;20.42;35.90;95431.50;10421378;28;2977;-50
2023/02/22 07:06:25;;;;;;;;;;;;;;;20.42;35.67;95431.50;10417269;28;3050;-49
2023/02/22 07:11:26;;;;;;;;;;;;;;;20.44;35.66;95434.66;10414229;28;3097;-48
2023/02/22 07:16:27;;;;;;;;;;;;;;;20.43;35.63;95438.34;10422746;28;2036;-50
2023/02/22 07:21:27;;;;;;;;;;;;;;;20.46;35.71;95435.16;10417273;28;2769;-53
2023/02/22 07:26:28;;;;;;;;;;;;;;;20.47;35.67;95430.66;10422176;28;2029;-49
2023/02/22 07:31:33;;;;;;;;;;;;;;;20.48;35.76;95430.41;10418044;28;2763;-49
2023/02/22 07:36:33;;;;;;;;;;;;;;;20.49;35.63;95431.94;10395670;28;2742;-48
2023/02/22 07:41:33;;;;;;;;;;;;;;;20.50;35.60;95430.09;10418226;28;2007;-51
2023/02/22 07:46:34;;;;;;;;;;;;;;;20.48;35.77;95422.50;10418052;28;2743;-51
2023/02/22 07:51:44;;;;;;;;;;;;;;;20.51;35.74;95414.03;10409538;28;2030;-51
2023/02/22 07:56:45;;;;;;;;;;;;;;;20.48;36.11;95425.13;10426027;28;2675;-49
2023/02/22 08:01:48;;;;;;;;;;;;;;;20.50;36.67;95412.47;10428663;28;2705;-52
2023/02/22 08:06:49;;;;;;;;;;;;;;;20.54;37.03;95405.56;10418372;28;2727;-50
2023/02/22 08:11:50;;;;;;;;;;;;;;;20.54;36.99;95404.78;10423326;28;2774;-52
2023/02/22 08:16:51;;;;;;;;;;;;;;;20.55;37.39;95404.50;10417022;28;2805;-51
2023/02/22 08:21:52;;;;;;;;;;;;;;;20.55;37.84;95398.44;10413777;28;2082;-52
2023/02/22 08:26:52;;;;;;;;;;;;;;;20.54;38.32;95392.41;10426137;28;1983;-49
2023/02/22 08:31:53;;;;;;;;;;;;;;;20.57;38.60;95396.31;10419735;28;3126;-54
2023/02/22 08:36:54;;;;;;;;;;;;;;;20.56;39.12;95392.13;10431942;28;2734;-51
2023/02/22 08:41:54;;;;;;;;;;;;;;;20.57;39.19;95385.78;10426264;28;2699;-53
2023/02/22 08:46:57;;;;;;;;;;;;;;;20.53;39.42;95388.19;10422911;28;2711;-54
2023/02/22 08:51:58;;;;;;;;;;;;;;;20.50;39.14;95385.34;10416968;28;2718;-55
2023/02/22 08:56:58;;;;;;;;;;;;;;;20.49;38.84;95381.91;10418813;28;1973;-53
2023/02/22 09:02:19;;;;;;;;;;;;;;;20.47;38.58;95385.88;10416398;28;2074;-52
2023/02/22 09:07:21;;;;;;;;;;;;;;;20.45;38.75;95375.66;10424708;28;2815;-50
2023/02/22 09:12:40;;;;;;;;;;;;;;;20.47;39.02;95381.41;10433667;28;2774;-51
2023/02/22 09:17:40;;;;;;;;;;;;;;;20.46;38.47;95374.59;10427968;28;2778;-51
2023/02/22 09:22:41;;;;;;;;;;;;;;;20.47;38.81;95370.88;10416861;28;2032;-53
2023/02/22 09:27:45;;;;;;;;;;;;;;;20.47;38.75;95368.25;10407432;28;2773;-51
2023/02/22 09:32:46;;;;;;;;;;;;;;;20.49;38.75;95368.75;10419622;28;2748;-48
2023/02/22 09:37:47;;;;;;;;;;;;;;;20.51;38.65;95366.63;10402464;28;2030;-50
2023/02/22 09:42:48;;;;;;;;;;;;;;;20.52;38.60;95362.94;10415805;28;1966;-52
2023/02/22 09:47:53;;;;;;;;;;;;;;;20.55;38.87;95354.47;10412660;28;2083;-52
2023/02/22 09:53:06;;;;;;;;;;;;;;;20.59;38.59;95355.47;10398110;28;2068;-49
2023/02/22 09:58:21;;;;;;;;;;;;;;;20.63;38.63;95347.81;10415053;28;2747;-55
2023/02/22 10:03:33;;;;;;;;;;;;;;;20.66;38.54;95349.84;10394093;28;2700;-50
2023/02/22 10:08:34;;;;;;;;;;;;;;;20.71;38.60;95342.66;10410695;28;2984;-53
2023/02/22 10:13:37;;;;;;;;;;;;;;;20.73;38.60;95335.25;10404814;28;2044;-50
2023/02/22 10:18:58;;;;;;;;;;;;;;;20.78;38.16;95329.94;10416694;28;2003;-48
2023/02/22 10:24:03;;;;;;;;;;;;;;;20.82;38.52;95325.66;10405787;28;2805;-50
2023/02/22 10:29:12;;;;;;;;;;;;;;;20.87;38.02;95325.59;10417015;28;2769;-51
2023/02/22 10:34:14;;;;;;;;;;;;;;;20.89;38.27;95326.09;10417769;28;2684;-53
2023/02/22 10:39:30;;;;;;;;;;;;;;;20.93;38.20;95315.78;10419369;28;2756;-49
2023/02/22 10:44:32;;;;;;;;;;;;;;;20.94;38.29;95318.09;10411746;28;2753;-52
2023/02/22 10:49:38;;;;;;;;;;;;;;;20.95;38.08;95317.06;10410801;28;2011;-52
2023/02/22 10:54:39;;;;;;;;;;;;;;;20.96;37.97;95313.34;10413528;28;2078;-50
2023/02/22 10:59:40;;;;;;;;;;;;;;;20.97;37.88;95312.28;10416445;28;2054;-53
2023/02/22 11:04:48;;;;;;;;;;;;;;;21.00;38.10;95311.69;10418191;28;2762;-54
2023/02/22 11:09:53;;;;;;;;;;;;;;;21.05;38.58;95302.97;10420890;28;2751;-51
2023/02/22 11:14:54;;;;;;;;;;;;;;;21.08;38.69;95297.91;10418594;28;2080;-51
2023/02/22 11:19:55;;;;;;;;;;;;;;;21.10;38.55;95284.44;10421971;28;2865;-48
2023/02/22 11:24:58;;;;;;;;;;;;;;;21.11;38.41;95279.94;10447646;28;2688;-52
2023/02/22 11:30:06;;;;;;;;;;;;;;;21.09;38.52;95259.16;10475768;28;2741;-52
2023/02/22 11:35:29;;;;;;;;;;;;;;;21.10;38.38;95258.09;10462802;28;2656;-48
2023/02/22 11:40:30;;;;;;;;;;;;;;;21.08;38.25;95256.81;10459670;28;2729;-52
2023/02/22 11:45:31;;;;;;;;;;;;;;;21.09;38.32;95259.16;10460954;28;2727;-53
2023/02/22 11:50:32;;;;;;;;;;;;;;;21.05;38.16;95245.00;10456774;28;2107;-50
2023/02/22 11:55:33;;;;;;;;;;;;;;;21.01;37.94;95244.75;10477559;28;2089;-52
2023/02/22 12:00:38;;;;;;;;;;;;;;;21.02;37.81;95235.00;10462690;28;2717;-49
2023/02/22 12:05:44;;;;;;;;;;;;;;;21.01;37.96;95230.78;10464332;28;2754;-54
2023/02/22 12:10:45;;;;;;;;;;;;;;;21.01;37.93;95228.94;10456434;28;2688;-54
2023/02/22 12:16:07;;;;;;;;;;;;;;;21.02;37.81;95224.47;10452387;28;1953;-50
2023/02/22 12:21:11;;;;;;;;;;;;;;;20.98;37.67;95221.59;10453778;28;2043;-52
2023/02/22 12:26:11;;;;;;;;;;;;;;;20.99;37.86;95219.75;10397385;28;2746;-48
2023/02/22 12:31:22;;;;;;;;;;;;;;;20.97;37.86;95214.78;10415335;28;2714;-51
2023/02/22 12:36:23;;;;;;;;;;;;;;;20.96;37.88;95210.56;10412146;28;2900;-50
2023/02/22 12:41:26;;;;;;;;;;;;;;;20.97;38.26;95206.88;10407101;28;2141;-50
2023/02/22 12:46:36;;;;;;;;;;;;;;;20.96;38.17;95207.16;10417474;28;2011;-47
2023/02/22 12:51:37;;;;;;;;;;;;;;;20.98;38.43;95207.66;10420192;28;2723;-48
2023/02/22 12:56:42;;;;;;;;;;;;;;;20.98;38.30;95202.38;10415831;28;2016;-51
2023/02/22 13:01:44;;;;;;;;;;;;;;;20.98;38.67;95197.91;10406685;28;2690;-47
2023/02/22 13:07:00;;;;;;;;;;;;;;;20.93;38.52;95190.09;10398364;28;2007;-50
2023/02/22 13:12:16;;;;;;;;;;;;;;;20.91;38.42;95184.34;10427525;28;2734;-48
2023/02/22 13:17:19;;;;;;;;;;;;;;;20.90;38.67;95180.13;10420630;28;2699;-47
2023/02/22 13:22:30;;;;;;;;;;;;;;;20.90;38.84;95174.06;10417796;28;2766;-48
2023/02/22 13:27:36;;;;;;;;;;;;;;;20.94;38.86;95175.03;10426057;28;2798;-48
2023/02/22 13:32:59;;;;;;;;;;;;;;;20.92;38.71;95172.72;10407605;28;2760;-51
2023/02/22 13:38:19;;;;;;;;;;;;;;;20.91;38.80;95175.63;10405420;28;2741;-53
2023/02/22 13:43:19;;;;;;;;;;;;;;;20.94;39.98;95169.78;10411462;28;2732;-51
2023/02/22 13:48:26;;;;;;;;;;;;;;;20.96;39.99;95167.63;10389835;28;1972;-49
2023/02/22 13:53:31;;;;;;;;;;;;;;;21.00;40.16;95164.13;10436434;28;2134;-50
2023/02/22 13:58:45;;;;;;;;;;;;;;;21.07;40.08;95155.88;10424081;28;2785;-50
2023/02/22 14:03:47;;;;;;;;;;;;;;;21.17;39.85;95153.06;10409705;28;2749;-52
2023/02/22 14:08:47;;;;;;;;;;;;;;;21.23;40.05;95156.38;10421014;28;2630;-50
2023/02/22 14:13:55;;;;;;;;;;;;;;;21.25;39.73;95156.88;10386453;28;2739;-49
2023/02/22 14:19:12;;;;;;;;;;;;;;;21.21;39.69;95154.03;10402922;28;2660;-50
2023/02/22 14:24:13;;;;;;;;;;;;;;;21.18;39.78;95154.66;10421695;28;2014;-50
2023/02/22 14:29:15;;;;;;;;;;;;;;;21.14;39.68;95148.41;10426565;28;2731;-50
2023/02/22 14:34:21;;;;;;;;;;;;;;;21.10;39.71;95150.06;10409675;28;2765;-49
2023/02/22 14:39:26;;;;;;;;;;;;;;;21.06;39.77;95152.47;10424778;28;2089;-48
2023/02/22 14:44:29;;;;;;;;;;;;;;;21.02;40.46;95148.84;10429969;28;1983;-50
2023/02/22 14:49:30;;;;;;;;;;;;;;;21.02;41.86;95150.69;10420918;28;2752;-54
2023/02/22 14:54:35;;;;;;;;;;;;;;;21.01;43.09;95149.13;10404213;28;2750;-49
2023/02/22 14:59:43;;;;;;;;;;;;;;;21.00;42.80;95145.69;10405451;28;2070;-52
2023/02/22 15:04:54;;;;;;;;;;;;;;;20.99;43.32;95154.69;10409472;28;2746;-50
2023/02/22 15:10:05;;;;;;;;;;;;;;;20.96;43.44;95147.34;10404044;28;2713;-51
2023/02/22 15:15:15;;;;;;;;;;;;;;;20.96;44.33;95157.88;10400642;28;2085;-52
2023/02/22 15:20:15;;;;;;;;;;;;;;;20.95;44.06;95155.53;10421020;28;2735;-54
2023/02/22 15:25:17;;;;;;;;;;;;;;;20.93;44.11;95152.41;10419201;28;2696;-52
2023/02/22 15:30:25;;;;;;;;;;;;;;;20.90;44.17;95159.03;10403529;28;2748;-53
2023/02/22 15:35:27;;;;;;;;;;;;;;;20.89;43.77;95161.97;10404246;28;1950;-50
2023/02/22 15:40:31;;;;;;;;;;;;;;;20.84;43.88;95152.28;10433885;28;2947;-53
2023/02/22 15:45:33;;;;;;;;;;;;;;;20.83;43.75;95158.66;10427880;28;2686;-52
2023/02/22 15:50:33;;;;;;;;;;;;;;;20.80;43.68;95153.94;10426643;28;2762;-48
2023/02/22 15:55:35;;;;;;;;;;;;;;;20.77;43.70;95159.78;10411007;28;2770;-52
2023/02/22 16:00:36;;;;;;;;;;;;;;;20.76;43.55;95160.06;10429732;28;2075;-51
2023/02/22 16:05:38;;;;;;;;;;;;;;;20.74;43.41;95165.63;10428945;28;2085;-52
2023/02/22 16:10:40;;;;;;;;;;;;;;;20.71;43.38;95158.28;10427607;28;2695;-50
2023/02/22 16:15:41;;;;;;;;;;;;;;;20.70;43.30;95167.28;10406536;28;2703;-52
2023/02/22 16:20:41;;;;;;;;;;;;;;;20.68;43.24;95172.06;10426327;28;2722;-53
2023/02/22 16:25:41;;;;;;;;;;;;;;;20.66;43.36;95174.19;10396319;28;2758;-49
2023/02/22 16:30:42;;;;;;;;;;;;;;;20.65;43.33;95174.50;10430171;28;2007;-50
2023/02/22 16:35:50;;;;;;;;;;;;;;;20.64;43.02;95178.19;10416917;28;2686;-52
2023/02/22 16:40:54;;;;;;;;;;;;;;;20.63;42.97;95179.25;10420840;28;2805;-53
2023/02/22 16:45:55;;;;;;;;;;;;;;;20.61;42.83;95186.66;10409894;28;2705;-52
2023/02/22 16:50:58;;;;;;;;;;;;;;;20.60;42.63;95185.09;10418952;28;2731;-49
2023/02/22 16:56:03;;;;;;;;;;;;;;;20.57;42.63;95191.69;10422390;28;2848;-51
2023/02/22 17:01:04;;;;;;;;;;;;;;;20.56;42.35;95194.63;10418915;28;2012;-49
2023/02/22 17:06:05;;;;;;;;;;;;;;;20.54;42.18;95202.81;10401985;28;2093;-49
2023/02/22 17:11:06;;;;;;;;;;;;;;;20.53;42.29;95192.56;10425396;28;2016;-51
2023/02/22 17:16:08;;;;;;;;;;;;;;;20.55;42.66;95193.84;10406129;28;2969;-52
2023/02/22 17:21:08;;;;;;;;;;;;;;;20.57;43.13;95209.34;10407943;28;2663;-50
2023/02/22 17:26:14;;;;;;;;;;;;;;;20.59;43.19;95208.00;10466513;27;1971;-52
2023/02/22 17:31:18;;;;;;;;;;;;;;;20.65;43.75;95219.25;10462652;28;2703;-54
2023/02/22 17:36:19;;;;;;;;;;;;;;;20.65;44.43;95220.03;10497856;28;2739;-47
2023/02/22 17:41:19;;;;;;;;;;;;;;;20.67;44.99;95223.16;10448332;28;2715;-55
2023/02/22 17:46:21;;;;;;;;;;;;;;;20.69;45.84;95214.97;10461622;28;2015;-53
2023/02/22 17:51:22;;;;;;;;;;;;;;;20.72;46.35;95211.75;10460935;28;2728;-52
2023/02/22 17:56:23;;;;;;;;;;;;;;;20.74;46.18;95217.53;10459595;28;3841;-55
2023/02/22 18:01:25;;;;;;;;;;;;;;;20.76;46.25;95212.75;10464650;28;2027;-53
2023/02/22 18:06:27;;;;;;;;;;;;;;;20.78;45.85;95214.03;10466184;28;2739;-55
2023/02/22 18:11:31;;;;;;;;;;;;;;;20.76;45.77;95213.53;10461356;28;2766;-54
2023/02/22 18:16:40;;;;;;;;;;;;;;;20.75;46.01;95219.88;10473837;28;2758;-54
2023/02/22 18:21:40;;;;;;;;;;;;;;;20.75;45.88;95213.84;10471187;28;2657;-53
2023/02/22 18:26:40;;;;;;;;;;;;;;;20.73;45.62;95208.06;10508544;28;2890;-52
2023/02/22 18:31:44;;;;;;;;;;;;;;;20.72;45.98;95214.41;10504507;28;2757;-54
2023/02/22 18:36:44;;;;;;;;;;;;;;;20.72;45.70;95209.13;10479291;28;2835;-52
2023/02/22 18:41:47;;;;;;;;;;;;;;;20.67;45.77;95212.63;10482702;28;1983;-53
2023/02/22 18:46:48;;;;;;;;;;;;;;;20.69;45.25;95210.47;10481974;28;2780;-54
2023/02/22 18:51:48;;;;;;;;;;;;;;;20.68;45.24;95208.94;10486905;28;2726;-55
2023/02/22 18:56:49;;;;;;;;;;;;;;;20.64;45.05;95210.56;10467214;28;2714;-54
2023/02/22 19:01:50;;;;;;;;;;;;;;;20.61;44.56;95224.28;10474292;28;2695;-51
2023/02/22 19:06:52;;;;;;;;;;;;;;;20.56;44.63;95210.44;10463667;28;2763;-49
2023/02/22 19:11:53;;;;;;;;;;;;;;;20.54;44.39;95218.63;10478676;28;2774;-54
2023/02/22 19:16:55;;;;;;;;;;;;;;;20.49;44.14;95218.69;10474166;28;2863;-51
2023/02/22 19:22:06;;;;;;;;;;;;;;;20.47;43.89;95222.66;10460292;28;2803;-51
2023/02/22 19:27:07;;;;;;;;;;;;;;;20.44;43.72;95223.25;10473484;28;2798;-51
2023/02/22 19:32:10;;;;;;;;;;;;;;;20.40;43.29;95227.53;10478336;28;2785;-50
2023/02/22 19:37:11;;;;;;;;;;;;;;;20.37;43.31;95234.13;10473768;28;2710;-49
2023/02/22 19:42:12;;;;;;;;;;;;;;;20.35;43.17;95236.25;10479904;28;2703;-52
2023/02/22 19:47:12;;;;;;;;;;;;;;;20.32;42.80;95234.19;10473929;28;2818;-52
2023/02/22 19:52:13;;;;;;;;;;;;;;;20.31;42.89;95239.75;10474245;28;2772;-52
2023/02/22 19:57:14;;;;;;;;;;;;;;;20.29;42.64;95245.28;10468234;28;2017;-51
2023/02/22 20:02:15;;;;;;;;;;;;;;;20.26;42.61;95240.59;10471502;28;2758;-51
2023/02/22 20:07:15;;;;;;;;;;;;;;;20.25;42.60;95245.09;10476268;28;2746;-54
2023/02/22 20:12:16;;;;;;;;;;;;;;;20.24;42.31;95245.34;10451372;28;2780;-50
2023/02/22 20:17:16;;;;;;;;;;;;;;;20.25;43.08;95257.44;10471372;28;2730;-49
2023/02/22 20:22:16;;;;;;;;;;;;;;;20.25;42.87;95252.19;10474912;28;2708;-50
2023/02/22 20:27:17;;;;;;;;;;;;;;;20.25;42.83;95252.19;10477525;28;2122;-52
2023/02/22 20:32:18;;;;;;;;;;;;;;;20.23;42.87;95255.09;10471671;28;2712;-52
2023/02/22 20:37:18;;;;;;;;;;;;;;;20.27;42.55;95255.31;10469966;28;2905;-52
2023/02/22 20:42:19;;;;;;;;;;;;;;;20.27;42.40;95260.59;10466250;28;2060;-52
2023/02/22 20:47:19;;;;;;;;;;;;;;;20.27;42.56;95265.84;10470224;28;2718;-51
2023/02/22 20:52:20;;;;;;;;;;;;;;;20.26;42.57;95261.63;10473430;28;2842;-53
2023/02/22 20:57:21;;;;;;;;;;;;;;;20.26;42.52;95262.44;10465391;28;3051;-50
2023/02/22 21:02:21;;;;;;;;;;;;;;;20.27;42.29;95265.84;10468035;28;1978;-54
2023/02/22 21:07:21;;;;;;;;;;;;;;;20.26;42.22;95257.16;10469855;28;2703;-51
2023/02/22 21:12:24;;;;;;;;;;;;;;;20.27;41.80;95255.31;10452353;28;2037;-52
2023/02/22 21:17:30;;;;;;;;;;;;;;;20.26;41.54;95254.53;10466773;28;2879;-51
2023/02/22 21:22:31;;;;;;;;;;;;;;;20.23;41.40;95254.31;10467993;28;2740;-53
2023/02/22 21:27:31;;;;;;;;;;;;;;;20.22;41.45;95248.25;10469411;28;2858;-52
2023/02/22 21:32:39;;;;;;;;;;;;;;;20.18;41.12;95259.59;10470672;28;2036;-52
2023/02/22 21:37:39;;;;;;;;;;;;;;;20.17;41.16;95250.16;10467368;28;2756;-54
2023/02/22 21:42:40;;;;;;;;;;;;;;;20.14;41.06;95254.13;10466427;28;2008;-51
2023/02/22 21:47:40;;;;;;;;;;;;;;;20.13;41.03;95260.44;10464339;28;2750;-51
2023/02/22 21:52:42;;;;;;;;;;;;;;;20.13;41.31;95259.69;10451781;28;2788;-51
2023/02/22 21:57:42;;;;;;;;;;;;;;;20.12;41.38;95258.91;10468366;28;2704;-51
2023/02/22 22:02:44;;;;;;;;;;;;;;;20.13;41.52;95251.78;10479116;28;2731;-49
2023/02/22 22:07:45;;;;;;;;;;;;;;;20.13;41.66;95257.06;10479872;28;2728;-49
2023/02/22 22:12:49;;;;;;;;;;;;;;;20.12;41.55;95258.09;10468779;28;2701;-54
2023/02/22 22:17:51;;;;;;;;;;;;;;;20.10;41.56;95252.34;10484813;28;2688;-50
2023/02/22 22:22:52;;;;;;;;;;;;;;;20.08;41.32;95249.22;10488194;28;2704;-52
2023/02/22 22:27:55;;;;;;;;;;;;;;;20.07;41.15;95250.28;10487709;28;2695;-49
2023/02/22 22:32:55;;;;;;;;;;;;;;;20.06;41.15;95256.59;10488782;28;2017;-53
2023/02/22 22:37:55;;;;;;;;;;;;;;;20.04;41.34;95248.19;10482314;28;2702;-50
2023/02/22 22:42:56;;;;;;;;;;;;;;;20.03;40.98;95246.66;10487347;28;2775;-47
2023/02/22 22:47:56;;;;;;;;;;;;;;;20.03;40.87;95249.28;10468291;28;2712;-48
2023/02/22 22:52:56;;;;;;;;;;;;;;;20.02;40.82;95247.69;10488583;28;2750;-52
2023/02/22 22:57:57;;;;;;;;;;;;;;;20.01;40.93;95256.69;10488071;28;1998;-49
2023/02/22 23:02:57;;;;;;;;;;;;;;;20.00;40.89;95257.72;10482462;28;2755;-50
2023/02/22 23:08:03;;;;;;;;;;;;;;;19.97;40.88;95258.31;10479650;28;3086;-50
2023/02/22 23:13:05;;;;;;;;;;;;;;;19.98;40.57;95263.28;10487197;28;2747;-53
2023/02/22 23:18:19;;;;;;;;;;;;;;;19.95;40.66;95258.56;10484028;28;2750;-51
2023/02/22 23:23:20;;;;;;;;;;;;;;;19.94;40.45;95270.16;10480298;28;2013;-50
2023/02/22 23:28:22;;;;;;;;;;;;;;;19.93;40.29;95276.47;10481729;28;3267;-47
2023/02/22 23:33:22;;;;;;;;;;;;;;;19.94;40.52;95279.91;10476089;28;2859;-51
2023/02/22 23:38:24;;;;;;;;;;;;;;;19.92;40.24;95274.13;10475428;28;2711;-52
2023/02/22 23:43:24;;;;;;;;;;;;;;;19.91;40.39;95273.34;10483237;28;2758;-49
2023/02/22 23:48:28;;;;;;;;;;;;;;;19.89;40.21;95274.69;10459778;28;2751;-50
2023/02/22 23:53:29;;;;;;;;;;;;;;;19.89;40.30;95280.72;10479535;28;2649;-49
2023/02/22 23:58:30;;;;;;;;;;;;;;;19.89;40.72;95278.09;10476583;28;2683;-54
